Flight Track Log - Related Links

Times and Time Zones

All times are in EDT time to prevent confusion due to time zone crossing. See the EJA831 flight status page for this flight to view local times or setup timezone preferences in your user account.

Time Position Orientation Groundspeed Altitude Reporting Facility
EDT Latitude Longitude Course Direction KTS km/h feet Rate Location/Type
Wed 16h01:00 38.3500 -77.3833 142° Southeast 207 383 2.600  Level Potomac TRACON
Wed 16h02:01 38.3167 -77.3167 122° Southeast 241 446 3.000 1.884 Climbing Potomac TRACON
Wed 16h03:01 38.2667 -77.2667 142° Southeast 260 481 6.400 2.950 Climbing Potomac TRACON
Wed 16h04:01 38.2167 -77.1833 127° Southeast 283 525 8.900 1.576 Climbing Potomac TRACON
Wed 16h04:40 38.1861 -77.1425 134° Southeast 291 539 9.000 660 Climbing Washington Center
Wed 16h05:41 38.1308 -77.0700 134° Southeast 296 549 10.000 508 Climbing Washington Center
Wed 16h06:00 38.0327 -76.9327 142° Southeast  Level FlightAware Approximate
Wed 16h06:38 38.0753 -76.9897 131° Southeast 296 549 10.000  Level Washington Center
Wed 16h07:38 38.0831 -76.8739 85° East 286 529 10.600 1.736 Climbing Washington Center
Wed 16h08:39 38.1194 -76.7742 65° Northeast 286 529 13.500 2.826 Climbing Washington Center
Wed 16h09:39 38.1664 -76.6719 60° Northeast 299 554 16.300 2.579 Climbing Washington Center
Wed 16h10:40 38.2108 -76.5722 60° Northeast 309 573 18.700 2.269 Climbing Washington Center
Wed 16h11:38 38.2556 -76.4722 60° Northeast 319 591 20.800 1.966 Climbing Washington Center
Wed 16h12:39 38.3125 -76.3722 54° Northeast 331 613 22.600 1.082 Climbing Washington Center
Wed 16h13:40 38.3878 -76.3094 33° Northeast 340 629 23.000 202 Climbing Washington Center
Wed 16h14:38 38.4739 -76.2281 36° Northeast 365 676 23.000 1.008 Level Washington Center
Wed 16h15:39 38.5617 -76.1467 36° Northeast 376 697 25.000 992 Climbing Washington Center
Wed 16h16:39 38.6603 -76.0542 36° Northeast 393 727 25.000  Level Washington Center
Wed 16h17:40 38.7500 -75.9750 35° Northeast 393 727 25.000  Level Washington Center
Wed 16h18:38 38.8400 -75.8900 36° Northeast 393 727 25.000 756 Level Washington Center
Wed 16h19:39 38.9256 -75.8078 37° Northeast 388 719 26.500 1.525 Climbing Washington Center
Wed 16h20:40 39.0092 -75.7306 36° Northeast 388 719 28.100 1.587 Climbing Washington Center
Wed 16h21:40 39.0947 -75.6506 36° Northeast 383 710 29.700 1.300 Climbing Washington Center
Wed 16h22:40 39.1781 -75.5703 37° Northeast 383 710 30.700 661 Climbing Washington Center
Wed 16h23:38 39.2675 -75.4869 36° Northeast 388 719 31.000 151 Climbing Washington Center
Wed 16h24:39 39.3592 -75.4036 35° Northeast 394 729 31.000  Level Washington Center
Wed 16h26:41 39.5453 -75.2372 35° Northeast 391 724 31.000  Level New York Center
Wed 16h27:42 39.6339 -75.1539 36° Northeast 391 724 31.000  Level New York Center
Wed 16h28:42 39.7250 -75.0597 38° Northeast 402 745 31.000  Level New York Center
Wed 16h29:40 39.8117 -74.9650 40° Northeast 407 753 31.000  Level New York Center
Wed 16h30:40 39.8964 -74.8728 40° Northeast 402 745 31.000  Level New York Center
Wed 16h31:41 39.9789 -74.7772 42° Northeast 396 734 31.000  Level New York Center
Wed 16h32:41 40.0633 -74.6819 41° Northeast 395 732 31.000  Level New York Center
Wed 16h33:42 40.1456 -74.5861 42° Northeast 395 732 31.000  Level New York Center
Wed 16h34:42 40.2192 -74.5031 41° Northeast 390 723 31.000  Level New York Center
Wed 16h35:40 40.3056 -74.4044 41° Northeast 395 732 31.000  Level New York Center
Wed 16h36:42 40.3878 -74.3078 42° Northeast 395 732 31.000  Level New York Center
Wed 16h37:42 40.4697 -74.2167 40° Northeast 395 732 31.000 -1.213 Level New York Center
Wed 16h39:50 40.6472 -74.0156 41° Northeast 395 732 27.200 -1.883 Descending Boston Center
Wed 16h40:50 40.7297 -73.9189 42° Northeast 390 723 25.100 -1.600 Descending Boston Center
Wed 16h41:50 40.8081 -73.8247 42° Northeast 380 703 24.000 -550 Descending Boston Center
Wed 16h42:50 40.9008 -73.7361 36° Northeast 380 703 24.000 -450 Level Boston Center
Wed 16h43:50 40.9994 -73.6806 23° Northeast 373 690 23.100 -500 Descending Boston Center
Wed 16h44:50 41.0978 -73.6272 22° Northeast 373 690 23.000 -450 Descending Boston Center
Wed 16h45:50 41.1922 -73.5739 23° Northeast 373 690 22.200 -1.100 Descending Boston Center
Wed 16h46:50 41.2906 -73.5342 17° North 373 690 20.800 -1.450 Descending Boston Center
Wed 16h47:50 41.3906 -73.5331 360° North 359 665 19.300 -1.600 Descending Boston Center
Wed 16h48:50 41.4803 -73.5344 359° North 359 665 17.600 -2.100 Descending Boston Center
Wed 16h49:50 41.5844 -73.5308 North 346 641 15.100 -2.300 Descending Boston Center
Wed 16h50:50 41.6697 -73.5322 359° North 340 629 13.000 -2.050 Descending Boston Center
Wed 16h51:50 41.7700 -73.5311 360° North 335 621 11.000 -1.000 Descending Boston Center
Wed 16h52:50 41.8511 -73.5297 North 324 600 11.000  Level Boston Center
Wed 16h54:02 41.9533 -73.5289 360° North 324 600 11.000  Level Boston Center
Wed 16h55:02 42.0617 -73.5278 360° North 329 610 11.000 -50 Level Boston Center
Wed 16h56:02 42.1453 -73.5208 North 329 610 10.900 -136 Descending Boston Center
Wed 16h57:14 42.2575 -73.5453 351° North 309 573 10.700 -870 Descending Boston Center
Wed 16h58:20 42.3425 -73.5833 342° North 280 518 8.900 -1.266 Descending Boston Center
Wed 16h59:22 42.4236 -73.6131 345° North 290 538 8.000 -885 Descending Boston Center
Wed 17h00:22 42.4983 -73.6453 342° North 285 528 7.100 -1.350 Descending Boston Center
Wed 17h01:22 42.5750 -73.6722 345° North 274 507 5.300 -1.041 Descending Boston Center
Wed 17h02:23 42.6414 -73.7017 342° North 258 478 5.000 -724 Descending Boston Center
Wed 17h03:18 42.7036 -73.7256 344° North 251 465 3.900 -1.043 Descending Boston Center
Wed 17h04:18 42.7681 -73.7494 345° North 233 431 3.000 -898 Descending Boston Center
Wed 17h05:25 42.8364 -73.7794 342° North 222 410 2.000 -492 Descending Boston Center
Wed 17h06:20 42.8883 -73.7975 346° North 213 394 2.000  Level Boston Center

Login

Don't have an account? Register now (free) for customized features, flight alerts, and more!